ORER/EBL METAR and TAF weather

Enter ICAO airport designator
Station Type Date Time Source
ORER METAR 2019/02/22 22:00 UTC NOAA

ORER 222200Z 32004KT 8000 NSC 05/05 Q1022


Station Type Date Time Source
ORER Decoded METAR 2019/02/22 22:00 UTC NOAA

Station name not available
Feb 22, 2019 - 05:00 PM EST / 2019.02.22 2200 UTC
Wind: from the NW (320 degrees) at 5 MPH (4 KT):0
Visibility: 4 mile(s):0
Temperature: 41 F (5 C)
Dew Point: 41 F (5 C)
Relative Humidity: 100%
Pressure (altimeter): 30.18 in. Hg (1022 hPa)
ob: ORER 222200Z 32004KT 8000 NSC 05/05 Q1022
cycle: 22

Station Type Date Time Source
ORER TAF 2019/02/22 18:55 UTC NOAA

TAF ORER 221600Z 2218/2318 18010KT 6000 TSSHRA FEW025CB SCT030


Example: see airport list